Orbital elements of FENGYUN 1C DEB
| Launched | 9 May 1999 |
| Flight ended | – |
| Launch site | Taiyuan Space Center, PRC |
| Owner | People's Republic of China |
| NORAD ID | 30036 |
| Date fetched |
Epoch osculation |
Inc. [°] |
Ecc. | RA asc node [hr] |
Arg Peri. [°] |
Mean anom [°] |
Mean motion [rev/day] |
Abs. mag |
| Date fetched |
Epoch osculation |
Inc. [°] |
Ecc. | RA asc node [hr] |
Arg Peri. [°] |
Mean anom [°] |
Mean motion [rev/day] |
Abs. mag |
| 2026 May 07 17:58 | 2026 May 04 13:20:56 | 98.2353 | 0.01900 | 10.1945 | 132.1172 | 351.5793 | 14.46766 | – |
| 2026 May 06 17:57 | 2026 May 04 13:20:56 | 98.2353 | 0.01900 | 10.1945 | 132.1172 | 351.5793 | 14.46766 | – |
| 2026 May 05 17:57 | 2026 May 04 13:20:56 | 98.2353 | 0.01900 | 10.1945 | 132.1172 | 351.5793 | 14.46766 | – |
| 2026 May 04 17:57 | 2026 Apr 30 14:44:28 | 98.2359 | 0.01898 | 9.9387 | 144.0749 | 351.5793 | 14.46766 | – |
| 2026 May 03 17:57 | 2026 Apr 30 14:44:28 | 98.2359 | 0.01898 | 9.9387 | 144.0749 | 351.5793 | 14.46766 | – |
| 2026 May 02 17:57 | 2026 Apr 30 14:44:28 | 98.2359 | 0.01898 | 9.9387 | 144.0749 | 351.5793 | 14.46766 | – |
| 2026 May 01 17:56 | 2026 Apr 30 14:44:28 | 98.2359 | 0.01898 | 9.9387 | 144.0749 | 351.5793 | 14.46766 | – |
| 2026 Apr 30 17:56 | 2026 Apr 30 14:44:28 | 98.2359 | 0.01898 | 9.9387 | 144.0749 | 351.5793 | 14.46766 | – |
| 2026 Apr 29 17:57 | 2026 Apr 23 01:22:15 | 98.2371 | 0.01894 | 9.4483 | 167.0556 | 351.5793 | 14.46766 | – |
| 2026 Apr 28 17:56 | 2026 Apr 23 01:22:15 | 98.2371 | 0.01894 | 9.4483 | 167.0556 | 351.5793 | 14.46766 | – |
| 2026 Apr 27 17:58 | 2026 Apr 23 01:22:15 | 98.2371 | 0.01894 | 9.4483 | 167.0556 | 351.5793 | 14.46766 | – |
| 2026 Apr 26 17:58 | 2026 Apr 23 01:22:15 | 98.2371 | 0.01894 | 9.4483 | 167.0556 | 351.5793 | 14.46766 | – |
| 2026 Apr 25 17:58 | 2026 Apr 23 01:22:15 | 98.2371 | 0.01894 | 9.4483 | 167.0556 | 351.5793 | 14.46766 | – |
| 2026 Apr 24 17:59 | 2026 Apr 23 01:22:15 | 98.2371 | 0.01894 | 9.4483 | 167.0556 | 351.5793 | 14.46766 | – |
| 2026 Apr 23 17:57 | 2026 Apr 18 23:29:40 | 98.2378 | 0.01891 | 9.1836 | 179.4803 | 351.5793 | 14.46766 | – |
| 2026 Apr 22 17:57 | 2026 Apr 18 23:29:40 | 98.2378 | 0.01891 | 9.1836 | 179.4803 | 351.5793 | 14.46766 | – |
| 2026 Apr 21 17:57 | 2026 Apr 18 23:29:40 | 98.2378 | 0.01891 | 9.1836 | 179.4803 | 351.5793 | 14.46766 | – |
| 2026 Apr 20 17:57 | 2026 Apr 18 23:29:40 | 98.2378 | 0.01891 | 9.1836 | 179.4803 | 351.5793 | 14.46766 | – |
| 2026 Apr 19 17:58 | 2026 Apr 18 23:29:40 | 98.2378 | 0.01891 | 9.1836 | 179.4803 | 351.5793 | 14.46766 | – |
| 2026 Apr 18 17:56 | 2026 Apr 12 13:38:49 | 98.2390 | 0.01886 | 8.7676 | 199.0435 | 351.5793 | 14.46766 | – |
| 2026 Apr 16 17:57 | 2026 Apr 12 13:38:49 | 98.2390 | 0.01886 | 8.7676 | 199.0435 | 351.5793 | 14.46766 | – |
| 2026 Apr 14 17:57 | 2026 Apr 12 13:38:49 | 98.2390 | 0.01886 | 8.7676 | 199.0435 | 351.5793 | 14.46766 | – |
| 2026 Apr 13 17:57 | 2026 Apr 12 13:38:49 | 98.2390 | 0.01886 | 8.7676 | 199.0435 | 351.5793 | 14.46766 | – |
| 2026 Apr 12 17:57 | 2026 Apr 08 13:22:08 | 98.2393 | 0.01884 | 8.5072 | 211.2952 | 351.5793 | 14.46766 | – |
| 2026 Apr 11 17:57 | 2026 Apr 08 13:22:08 | 98.2393 | 0.01884 | 8.5072 | 211.2952 | 351.5793 | 14.46766 | – |
| 2026 Apr 10 17:58 | 2026 Apr 08 13:22:08 | 98.2393 | 0.01884 | 8.5072 | 211.2952 | 351.5793 | 14.46766 | – |